sensor_id;sensor_type;location;lat;lon;timestamp;pressure;altitude;pressure_sealevel;temperature;humidity
72896;BME280;61036;53.224;6.554;2023-04-02T00:03:24;101532.47;;;4.15;100.00
72896;BME280;61036;53.224;6.554;2023-04-02T00:05:50;101533.13;;;3.98;100.00
72896;BME280;61036;53.224;6.554;2023-04-02T00:08:45;101537.69;;;3.95;100.00
72896;BME280;61036;53.224;6.554;2023-04-02T00:11:33;101549.63;;;3.84;100.00
72896;BME280;61036;53.224;6.554;2023-04-02T00:14:12;101552.19;;;3.62;100.00
72896;BME280;61036;53.224;6.554;2023-04-02T00:16:39;101562.13;;;3.57;100.00
72896;BME280;61036;53.224;6.554;2023-04-02T00:19:06;101558.66;;;3.80;100.00
72896;BME280;61036;53.224;6.554;2023-04-02T00:21:37;101567.44;;;3.57;100.00
72896;BME280;61036;53.224;6.554;2023-04-02T00:24:13;101571.81;;;3.60;100.00
72896;BME280;61036;53.224;6.554;2023-04-02T00:26:43;101585.34;;;3.54;100.00
72896;BME280;61036;53.224;6.554;2023-04-02T00:29:11;101586.19;;;3.29;100.00
72896;BME280;61036;53.224;6.554;2023-04-02T00:31:41;101591.53;;;3.28;100.00
72896;BME280;61036;53.224;6.554;2023-04-02T00:34:13;101585.91;;;3.37;100.00
72896;BME280;61036;53.224;6.554;2023-04-02T00:36:39;101595.56;;;3.13;100.00
72896;BME280;61036;53.224;6.554;2023-04-02T00:39:12;101606.28;;;3.39;100.00
72896;BME280;61036;53.224;6.554;2023-04-02T00:41:41;101606.44;;;3.35;100.00
72896;BME280;61036;53.224;6.554;2023-04-02T00:44:13;101617.88;;;3.38;100.00
72896;BME280;61036;53.224;6.554;2023-04-02T00:46:41;101619.66;;;3.38;100.00
72896;BME280;61036;53.224;6.554;2023-04-02T00:51:52;101634.94;;;3.33;100.00
72896;BME280;61036;53.224;6.554;2023-04-02T00:54:20;101627.13;;;2.98;100.00
72896;BME280;61036;53.224;6.554;2023-04-02T00:56:49;101637.34;;;3.12;100.00
72896;BME280;61036;53.224;6.554;2023-04-02T00:59:27;101642.97;;;3.03;100.00
72896;BME280;61036;53.224;6.554;2023-04-02T01:07:53;101654.47;;;3.33;100.00
72896;BME280;61036;53.224;6.554;2023-04-02T01:10:54;101656.28;;;3.03;100.00
72896;BME280;61036;53.224;6.554;2023-04-02T01:13:30;101655.97;;;3.14;100.00
72896;BME280;61036;53.224;6.554;2023-04-02T01:18:51;101659.56;;;2.83;100.00
72896;BME280;61036;53.224;6.554;2023-04-02T01:21:32;101663.22;;;2.79;100.00
72896;BME280;61036;53.224;6.554;2023-04-02T01:24:10;101669.00;;;2.95;100.00
72896;BME280;61036;53.224;6.554;2023-04-02T01:29:48;101676.06;;;2.96;100.00
72896;BME280;61036;53.224;6.554;2023-04-02T01:32:18;101679.84;;;2.87;100.00
72896;BME280;61036;53.224;6.554;2023-04-02T01:34:46;101688.56;;;2.63;100.00
72896;BME280;61036;53.224;6.554;2023-04-02T01:42:44;101708.16;;;2.60;100.00
72896;BME280;61036;53.224;6.554;2023-04-02T01:45:18;101709.16;;;2.56;100.00
72896;BME280;61036;53.224;6.554;2023-04-02T01:47:44;101717.78;;;2.64;100.00
72896;BME280;61036;53.224;6.554;2023-04-02T01:50:30;101722.84;;;2.75;100.00
72896;BME280;61036;53.224;6.554;2023-04-02T01:53:00;101717.16;;;2.56;100.00
72896;BME280;61036;53.224;6.554;2023-04-02T01:58:12;101740.81;;;2.67;100.00
72896;BME280;61036;53.224;6.554;2023-04-02T02:00:48;101736.94;;;2.46;100.00
72896;BME280;61036;53.224;6.554;2023-04-02T02:03:16;101742.16;;;2.50;100.00
72896;BME280;61036;53.224;6.554;2023-04-02T02:05:42;101747.41;;;2.19;100.00
72896;BME280;61036;53.224;6.554;2023-04-02T02:08:32;101753.88;;;2.43;100.00
72896;BME280;61036;53.224;6.554;2023-04-02T02:10:59;101766.72;;;2.27;100.00
72896;BME280;61036;53.224;6.554;2023-04-02T02:13:26;101770.16;;;2.31;100.00
72896;BME280;61036;53.224;6.554;2023-04-02T02:15:56;101773.50;;;2.39;100.00
72896;BME280;61036;53.224;6.554;2023-04-02T02:18:22;101777.19;;;2.34;100.00
72896;BME280;61036;53.224;6.554;2023-04-02T02:20:49;101785.34;;;2.27;100.00
72896;BME280;61036;53.224;6.554;2023-04-02T02:23:15;101790.63;;;2.29;100.00
72896;BME280;61036;53.224;6.554;2023-04-02T02:25:41;101801.22;;;2.31;100.00
72896;BME280;61036;53.224;6.554;2023-04-02T02:28:31;101797.16;;;2.51;100.00
72896;BME280;61036;53.224;6.554;2023-04-02T02:31:04;101809.53;;;2.18;100.00
72896;BME280;61036;53.224;6.554;2023-04-02T02:33:37;101805.94;;;2.19;100.00
72896;BME280;61036;53.224;6.554;2023-04-02T02:36:12;101801.47;;;2.21;100.00
72896;BME280;61036;53.224;6.554;2023-04-02T02:38:54;101817.28;;;2.27;100.00
72896;BME280;61036;53.224;6.554;2023-04-02T02:41:36;101818.59;;;2.10;100.00
72896;BME280;61036;53.224;6.554;2023-04-02T02:44:10;101822.50;;;1.95;100.00
72896;BME280;61036;53.224;6.554;2023-04-02T02:46:43;101828.69;;;2.33;100.00
72896;BME280;61036;53.224;6.554;2023-04-02T02:49:17;101829.94;;;2.18;100.00
72896;BME280;61036;53.224;6.554;2023-04-02T02:52:02;101836.28;;;2.12;100.00
72896;BME280;61036;53.224;6.554;2023-04-02T02:54:41;101840.00;;;2.05;100.00
72896;BME280;61036;53.224;6.554;2023-04-02T02:57:12;101840.94;;;2.02;100.00
72896;BME280;61036;53.224;6.554;2023-04-02T02:59:38;101843.69;;;1.98;100.00
72896;BME280;61036;53.224;6.554;2023-04-02T03:02:05;101853.53;;;1.96;100.00
72896;BME280;61036;53.224;6.554;2023-04-02T03:04:34;101850.25;;;1.83;100.00
72896;BME280;61036;53.224;6.554;2023-04-02T03:07:03;101855.34;;;1.94;100.00
72896;BME280;61036;53.224;6.554;2023-04-02T03:09:48;101863.38;;;1.91;100.00
72896;BME280;61036;53.224;6.554;2023-04-02T03:12:40;101866.69;;;2.02;100.00
72896;BME280;61036;53.224;6.554;2023-04-02T03:17:54;101869.66;;;1.88;100.00
72896;BME280;61036;53.224;6.554;2023-04-02T03:25:42;101894.09;;;2.04;100.00
72896;BME280;61036;53.224;6.554;2023-04-02T03:28:27;101903.00;;;2.03;100.00
72896;BME280;61036;53.224;6.554;2023-04-02T03:31:02;101909.69;;;1.82;100.00
72896;BME280;61036;53.224;6.554;2023-04-02T03:33:34;101910.72;;;1.75;100.00
72896;BME280;61036;53.224;6.554;2023-04-02T03:36:15;101911.94;;;2.00;100.00
72896;BME280;61036;53.224;6.554;2023-04-02T03:38:50;101924.75;;;1.81;100.00
72896;BME280;61036;53.224;6.554;2023-04-02T03:41:23;101930.97;;;1.80;100.00
72896;BME280;61036;53.224;6.554;2023-04-02T03:43:57;101930.94;;;1.82;100.00
72896;BME280;61036;53.224;6.554;2023-04-02T03:46:39;101947.38;;;2.01;100.00
72896;BME280;61036;53.224;6.554;2023-04-02T03:49:11;101942.19;;;1.95;100.00
72896;BME280;61036;53.224;6.554;2023-04-02T03:51:58;101950.50;;;1.81;100.00
72896;BME280;61036;53.224;6.554;2023-04-02T03:54:27;101960.00;;;1.91;100.00
72896;BME280;61036;53.224;6.554;2023-04-02T03:56:53;101972.00;;;1.69;100.00
72896;BME280;61036;53.224;6.554;2023-04-02T04:02:11;101975.31;;;1.80;100.00
72896;BME280;61036;53.224;6.554;2023-04-02T04:04:40;101977.84;;;1.86;100.00
72896;BME280;61036;53.224;6.554;2023-04-02T04:07:19;101974.16;;;1.93;100.00
72896;BME280;61036;53.224;6.554;2023-04-02T04:09:50;101979.44;;;1.95;100.00
72896;BME280;61036;53.224;6.554;2023-04-02T04:12:27;101993.94;;;1.80;100.00
72896;BME280;61036;53.224;6.554;2023-04-02T04:15:26;101987.97;;;1.69;100.00
72896;BME280;61036;53.224;6.554;2023-04-02T04:20:49;102002.75;;;1.82;100.00
72896;BME280;61036;53.224;6.554;2023-04-02T04:23:31;102002.75;;;1.82;100.00
72896;BME280;61036;53.224;6.554;2023-04-02T04:26:25;102010.28;;;1.60;100.00
72896;BME280;61036;53.224;6.554;2023-04-02T04:29:06;102014.88;;;1.97;100.00
72896;BME280;61036;53.224;6.554;2023-04-02T04:31:42;102026.13;;;1.66;100.00
72896;BME280;61036;53.224;6.554;2023-04-02T04:34:19;102022.66;;;1.63;100.00
72896;BME280;61036;53.224;6.554;2023-04-02T04:36:58;102035.59;;;1.79;100.00
72896;BME280;61036;53.224;6.554;2023-04-02T04:39:40;102032.94;;;1.81;100.00
72896;BME280;61036;53.224;6.554;2023-04-02T04:42:15;102037.41;;;1.79;100.00
72896;BME280;61036;53.224;6.554;2023-04-02T04:45:15;102050.50;;;1.90;100.00
72896;BME280;61036;53.224;6.554;2023-04-02T04:47:53;102053.22;;;1.87;100.00
72896;BME280;61036;53.224;6.554;2023-04-02T04:50:29;102068.38;;;1.81;100.00
72896;BME280;61036;53.224;6.554;2023-04-02T04:53:04;102082.34;;;1.93;100.00
72896;BME280;61036;53.224;6.554;2023-04-02T04:55:42;102077.97;;;1.89;100.00
72896;BME280;61036;53.224;6.554;2023-04-02T04:58:32;102092.03;;;1.95;100.00
72896;BME280;61036;53.224;6.554;2023-04-02T05:01:09;102093.88;;;1.92;100.00
72896;BME280;61036;53.224;6.554;2023-04-02T05:06:23;102105.56;;;1.85;100.00
72896;BME280;61036;53.224;6.554;2023-04-02T05:08:53;102107.34;;;1.82;100.00
72896;BME280;61036;53.224;6.554;2023-04-02T05:11:32;102117.25;;;1.76;100.00
72896;BME280;61036;53.224;6.554;2023-04-02T05:14:17;102133.13;;;1.79;100.00
72896;BME280;61036;53.224;6.554;2023-04-02T05:16:49;102122.44;;;1.80;100.00
72896;BME280;61036;53.224;6.554;2023-04-02T05:19:30;102132.44;;;1.68;100.00
72896;BME280;61036;53.224;6.554;2023-04-02T05:24:52;102145.63;;;1.74;100.00
72896;BME280;61036;53.224;6.554;2023-04-02T05:30:02;102154.19;;;1.93;100.00
72896;BME280;61036;53.224;6.554;2023-04-02T05:32:34;102153.56;;;2.25;100.00
72896;BME280;61036;53.224;6.554;2023-04-02T05:35:05;102158.28;;;2.11;100.00
72896;BME280;61036;53.224;6.554;2023-04-02T05:37:33;102165.72;;;1.92;100.00
72896;BME280;61036;53.224;6.554;2023-04-02T05:40:08;102157.78;;;2.37;100.00
72896;BME280;61036;53.224;6.554;2023-04-02T05:42:41;102168.81;;;2.62;100.00
72896;BME280;61036;53.224;6.554;2023-04-02T05:45:31;102175.41;;;2.44;100.00
72896;BME280;61036;53.224;6.554;2023-04-02T05:48:06;102181.09;;;2.67;100.00
72896;BME280;61036;53.224;6.554;2023-04-02T05:50:43;102184.69;;;2.68;100.00
72896;BME280;61036;53.224;6.554;2023-04-02T05:53:23;102196.81;;;2.38;100.00
72896;BME280;61036;53.224;6.554;2023-04-02T05:55:55;102197.38;;;2.54;100.00
72896;BME280;61036;53.224;6.554;2023-04-02T05:58:31;102202.78;;;2.49;100.00
72896;BME280;61036;53.224;6.554;2023-04-02T06:04:18;102223.84;;;2.63;100.00
72896;BME280;61036;53.224;6.554;2023-04-02T06:06:56;102217.59;;;2.64;100.00
72896;BME280;61036;53.224;6.554;2023-04-02T06:12:14;102233.44;;;3.13;100.00
72896;BME280;61036;53.224;6.554;2023-04-02T06:14:42;102246.44;;;2.85;100.00
72896;BME280;61036;53.224;6.554;2023-04-02T06:17:13;102254.38;;;3.32;100.00
72896;BME280;61036;53.224;6.554;2023-04-02T06:19:40;102249.91;;;2.90;100.00
72896;BME280;61036;53.224;6.554;2023-04-02T06:22:17;102247.72;;;3.09;100.00
72896;BME280;61036;53.224;6.554;2023-04-02T06:24:46;102263.84;;;3.05;100.00
72896;BME280;61036;53.224;6.554;2023-04-02T06:27:17;102281.63;;;3.46;100.00
72896;BME280;61036;53.224;6.554;2023-04-02T06:29:46;102282.28;;;3.54;100.00
72896;BME280;61036;53.224;6.554;2023-04-02T06:32:19;102275.03;;;4.34;100.00
72896;BME280;61036;53.224;6.554;2023-04-02T06:34:47;102274.47;;;4.21;100.00
72896;BME280;61036;53.224;6.554;2023-04-02T06:37:36;102290.91;;;4.04;100.00
72896;BME280;61036;53.224;6.554;2023-04-02T06:40:44;102286.38;;;4.76;100.00
72896;BME280;61036;53.224;6.554;2023-04-02T06:46:35;102300.56;;;4.46;100.00
72896;BME280;61036;53.224;6.554;2023-04-02T06:49:18;102313.06;;;5.68;100.00
72896;BME280;61036;53.224;6.554;2023-04-02T06:51:52;102301.13;;;8.02;100.00
72896;BME280;61036;53.224;6.554;2023-04-02T06:54:18;102299.81;;;6.98;100.00
72896;BME280;61036;53.224;6.554;2023-04-02T06:56:53;102312.56;;;7.17;100.00
72896;BME280;61036;53.224;6.554;2023-04-02T06:59:33;102308.78;;;6.72;100.00
72896;BME280;61036;53.224;6.554;2023-04-02T07:02:04;102314.91;;;6.51;100.00
72896;BME280;61036;53.224;6.554;2023-04-02T07:04:37;102319.56;;;6.71;100.00
72896;BME280;61036;53.224;6.554;2023-04-02T07:07:02;102315.72;;;9.02;100.00
72896;BME280;61036;53.224;6.554;2023-04-02T07:09:32;102324.50;;;7.08;100.00
72896;BME280;61036;53.224;6.554;2023-04-02T07:12:00;102331.09;;;8.36;100.00
72896;BME280;61036;53.224;6.554;2023-04-02T07:14:26;102334.94;;;7.16;100.00
72896;BME280;61036;53.224;6.554;2023-04-02T07:16:51;102338.75;;;6.58;100.00
72896;BME280;61036;53.224;6.554;2023-04-02T07:19:20;102340.97;;;5.89;100.00
72896;BME280;61036;53.224;6.554;2023-04-02T07:21:48;102346.38;;;6.17;100.00
72896;BME280;61036;53.224;6.554;2023-04-02T07:24:14;102345.63;;;5.84;100.00
72896;BME280;61036;53.224;6.554;2023-04-02T07:26:40;102362.69;;;5.80;100.00
72896;BME280;61036;53.224;6.554;2023-04-02T07:29:07;102360.63;;;5.60;100.00
72896;BME280;61036;53.224;6.554;2023-04-02T07:31:33;102361.75;;;6.39;100.00
72896;BME280;61036;53.224;6.554;2023-04-02T07:33:59;102356.25;;;6.95;100.00
72896;BME280;61036;53.224;6.554;2023-04-02T07:36:27;102372.94;;;5.66;100.00
72896;BME280;61036;53.224;6.554;2023-04-02T07:38:53;102382.13;;;5.87;100.00
72896;BME280;61036;53.224;6.554;2023-04-02T07:41:19;102378.34;;;5.64;100.00
72896;BME280;61036;53.224;6.554;2023-04-02T07:43:45;102376.66;;;5.31;100.00
72896;BME280;61036;53.224;6.554;2023-04-02T07:46:12;102377.03;;;6.07;100.00
72896;BME280;61036;53.224;6.554;2023-04-02T07:48:41;102380.28;;;5.28;100.00
72896;BME280;61036;53.224;6.554;2023-04-02T07:51:14;102372.97;;;5.64;100.00
72896;BME280;61036;53.224;6.554;2023-04-02T07:53:41;102382.34;;;5.49;100.00
72896;BME280;61036;53.224;6.554;2023-04-02T07:56:06;102389.19;;;6.47;100.00
72896;BME280;61036;53.224;6.554;2023-04-02T07:58:32;102406.06;;;5.93;100.00
72896;BME280;61036;53.224;6.554;2023-04-02T08:00:59;102401.53;;;5.64;100.00
72896;BME280;61036;53.224;6.554;2023-04-02T08:03:26;102405.50;;;7.18;100.00
72896;BME280;61036;53.224;6.554;2023-04-02T08:05:54;102393.38;;;7.56;100.00
72896;BME280;61036;53.224;6.554;2023-04-02T08:08:21;102402.75;;;5.54;100.00
72896;BME280;61036;53.224;6.554;2023-04-02T08:10:47;102407.38;;;5.16;100.00
72896;BME280;61036;53.224;6.554;2023-04-02T08:13:13;102401.75;;;5.25;100.00
72896;BME280;61036;53.224;6.554;2023-04-02T08:15:39;102404.88;;;5.72;100.00
72896;BME280;61036;53.224;6.554;2023-04-02T08:18:05;102400.91;;;11.60;100.00
72896;BME280;61036;53.224;6.554;2023-04-02T08:20:31;102413.31;;;9.26;100.00
72896;BME280;61036;53.224;6.554;2023-04-02T08:22:56;102406.25;;;12.27;100.00
72896;BME280;61036;53.224;6.554;2023-04-02T08:25:22;102414.00;;;11.00;100.00
72896;BME280;61036;53.224;6.554;2023-04-02T08:27:48;102411.72;;;13.17;89.24
72896;BME280;61036;53.224;6.554;2023-04-02T08:30:16;102416.56;;;15.48;86.46
72896;BME280;61036;53.224;6.554;2023-04-02T08:32:41;102412.75;;;16.62;72.41
72896;BME280;61036;53.224;6.554;2023-04-02T08:35:09;102418.44;;;16.22;75.60
72896;BME280;61036;53.224;6.554;2023-04-02T08:37:35;102425.72;;;18.43;57.55
72896;BME280;61036;53.224;6.554;2023-04-02T08:40:01;102415.63;;;17.31;64.95
72896;BME280;61036;53.224;6.554;2023-04-02T08:42:51;102416.75;;;18.52;62.20
72896;BME280;61036;53.224;6.554;2023-04-02T08:48:01;102432.53;;;18.38;59.09
72896;BME280;61036;53.224;6.554;2023-04-02T08:50:33;102430.25;;;16.71;59.50
72896;BME280;61036;53.224;6.554;2023-04-02T08:53:02;102435.06;;;17.27;56.15
72896;BME280;61036;53.224;6.554;2023-04-02T08:58:40;102440.53;;;18.07;56.81
72896;BME280;61036;53.224;6.554;2023-04-02T09:01:20;102442.25;;;15.04;62.38
72896;BME280;61036;53.224;6.554;2023-04-02T09:03:49;102456.41;;;15.74;62.65
72896;BME280;61036;53.224;6.554;2023-04-02T09:06:18;102445.75;;;15.71;63.25
72896;BME280;61036;53.224;6.554;2023-04-02T09:08:46;102450.63;;;13.46;74.65
72896;BME280;61036;53.224;6.554;2023-04-02T09:11:30;102451.28;;;14.50;78.55
72896;BME280;61036;53.224;6.554;2023-04-02T09:14:00;102464.19;;;10.50;99.96
72896;BME280;61036;53.224;6.554;2023-04-02T09:18:59;102460.53;;;16.79;72.70
72896;BME280;61036;53.224;6.554;2023-04-02T09:21:42;102466.94;;;17.02;66.28
72896;BME280;61036;53.224;6.554;2023-04-02T09:24:11;102466.25;;;15.63;67.86
72896;BME280;61036;53.224;6.554;2023-04-02T09:26:40;102470.91;;;11.82;96.03
72896;BME280;61036;53.224;6.554;2023-04-02T09:31:38;102503.75;;;9.92;96.00
72896;BME280;61036;53.224;6.554;2023-04-02T09:34:33;102492.19;;;10.84;100.00
72896;BME280;61036;53.224;6.554;2023-04-02T09:37:28;102491.16;;;14.77;87.24
72896;BME280;61036;53.224;6.554;2023-04-02T09:40:26;102493.28;;;13.87;88.75
72896;BME280;61036;53.224;6.554;2023-04-02T09:43:13;102495.69;;;15.70;74.53
72896;BME280;61036;53.224;6.554;2023-04-02T09:45:41;102509.09;;;15.06;78.04
72896;BME280;61036;53.224;6.554;2023-04-02T09:48:23;102498.91;;;16.27;61.02
72896;BME280;61036;53.224;6.554;2023-04-02T09:51:03;102499.13;;;16.23;61.47
72896;BME280;61036;53.224;6.554;2023-04-02T09:53:36;102506.91;;;13.71;70.94
72896;BME280;61036;53.224;6.554;2023-04-02T09:56:10;102510.31;;;13.75;83.69
72896;BME280;61036;53.224;6.554;2023-04-02T09:58:37;102488.28;;;15.72;74.53
72896;BME280;61036;53.224;6.554;2023-04-02T10:01:03;102498.75;;;17.96;59.94
72896;BME280;61036;53.224;6.554;2023-04-02T10:03:30;102501.53;;;16.15;64.92
72896;BME280;61036;53.224;6.554;2023-04-02T10:06:09;102507.56;;;15.55;64.86
72896;BME280;61036;53.224;6.554;2023-04-02T10:08:38;102506.75;;;14.17;75.89
72896;BME280;61036;53.224;6.554;2023-04-02T10:11:11;102522.16;;;13.88;73.94
72896;BME280;61036;53.224;6.554;2023-04-02T10:18:57;102513.00;;;17.53;61.69
72896;BME280;61036;53.224;6.554;2023-04-02T10:21:30;102521.81;;;16.98;61.74
72896;BME280;61036;53.224;6.554;2023-04-02T10:23:56;102534.13;;;12.62;85.57
72896;BME280;61036;53.224;6.554;2023-04-02T10:29:25;102525.44;;;9.89;100.00
72896;BME280;61036;53.224;6.554;2023-04-02T10:32:34;102549.09;;;9.82;100.00
72896;BME280;61036;53.224;6.554;2023-04-02T10:35:40;102545.03;;;9.92;100.00
72896;BME280;61036;53.224;6.554;2023-04-02T10:51:54;102563.84;;;9.10;100.00
72896;BME280;61036;53.224;6.554;2023-04-02T10:54:33;102573.53;;;8.70;100.00
72896;BME280;61036;53.224;6.554;2023-04-02T10:59:34;102575.88;;;9.24;100.00
72896;BME280;61036;53.224;6.554;2023-04-02T11:02:12;102574.41;;;10.19;100.00
72896;BME280;61036;53.224;6.554;2023-04-02T11:04:43;102578.53;;;9.87;100.00
72896;BME280;61036;53.224;6.554;2023-04-02T11:07:18;102569.84;;;9.39;100.00
72896;BME280;61036;53.224;6.554;2023-04-02T11:09:48;102574.94;;;10.06;100.00
72896;BME280;61036;53.224;6.554;2023-04-02T11:12:39;102580.94;;;9.93;100.00
72896;BME280;61036;53.224;6.554;2023-04-02T11:15:17;102587.88;;;9.37;100.00
72896;BME280;61036;53.224;6.554;2023-04-02T11:17:44;102587.44;;;8.82;100.00
72896;BME280;61036;53.224;6.554;2023-04-02T11:20:42;102589.91;;;10.14;100.00
72896;BME280;61036;53.224;6.554;2023-04-02T11:23:10;102586.72;;;10.83;100.00
72896;BME280;61036;53.224;6.554;2023-04-02T11:25:36;102591.88;;;10.49;100.00
72896;BME280;61036;53.224;6.554;2023-04-02T11:30:48;102588.88;;;10.16;100.00
72896;BME280;61036;53.224;6.554;2023-04-02T11:36:03;102608.72;;;9.10;100.00
72896;BME280;61036;53.224;6.554;2023-04-02T11:38:48;102599.75;;;10.35;100.00
72896;BME280;61036;53.224;6.554;2023-04-02T11:41:59;102601.44;;;9.34;100.00
72896;BME280;61036;53.224;6.554;2023-04-02T11:44:22;102620.84;;;9.84;100.00
72896;BME280;61036;53.224;6.554;2023-04-02T11:46:48;102606.00;;;9.32;100.00
72896;BME280;61036;53.224;6.554;2023-04-02T11:49:34;102610.84;;;9.46;100.00
72896;BME280;61036;53.224;6.554;2023-04-02T11:52:01;102620.16;;;8.93;100.00
72896;BME280;61036;53.224;6.554;2023-04-02T11:54:28;102612.47;;;9.28;100.00
72896;BME280;61036;53.224;6.554;2023-04-02T11:57:21;102614.66;;;9.82;100.00
72896;BME280;61036;53.224;6.554;2023-04-02T12:03:19;102625.31;;;10.26;100.00
72896;BME280;61036;53.224;6.554;2023-04-02T12:06:03;102626.34;;;10.22;100.00
72896;BME280;61036;53.224;6.554;2023-04-02T12:11:05;102637.00;;;11.04;100.00
72896;BME280;61036;53.224;6.554;2023-04-02T12:16:12;102647.19;;;10.19;100.00
72896;BME280;61036;53.224;6.554;2023-04-02T12:18:46;102643.47;;;10.01;100.00
72896;BME280;61036;53.224;6.554;2023-04-02T12:21:17;102648.19;;;9.53;100.00
72896;BME280;61036;53.224;6.554;2023-04-02T12:23:47;102658.56;;;9.84;100.00
72896;BME280;61036;53.224;6.554;2023-04-02T12:26:33;102638.09;;;10.01;100.00
72896;BME280;61036;53.224;6.554;2023-04-02T12:29:24;102660.09;;;9.70;100.00
72896;BME280;61036;53.224;6.554;2023-04-02T12:31:52;102663.31;;;8.90;100.00
72896;BME280;61036;53.224;6.554;2023-04-02T12:34:19;102662.75;;;9.49;100.00
72896;BME280;61036;53.224;6.554;2023-04-02T12:36:54;102671.72;;;9.72;100.00
72896;BME280;61036;53.224;6.554;2023-04-02T12:39:20;102675.78;;;9.80;100.00
72896;BME280;61036;53.224;6.554;2023-04-02T12:41:46;102676.91;;;9.54;100.00
72896;BME280;61036;53.224;6.554;2023-04-02T12:44:15;102664.56;;;9.49;100.00
72896;BME280;61036;53.224;6.554;2023-04-02T12:46:42;102660.13;;;9.48;100.00
72896;BME280;61036;53.224;6.554;2023-04-02T12:49:24;102673.06;;;9.16;100.00
72896;BME280;61036;53.224;6.554;2023-04-02T12:51:53;102674.19;;;9.32;100.00
72896;BME280;61036;53.224;6.554;2023-04-02T12:54:19;102660.22;;;9.01;100.00
72896;BME280;61036;53.224;6.554;2023-04-02T12:56:46;102667.66;;;9.82;100.00
72896;BME280;61036;53.224;6.554;2023-04-02T13:02:01;102673.19;;;10.61;100.00
72896;BME280;61036;53.224;6.554;2023-04-02T13:04:27;102670.13;;;10.08;100.00
72896;BME280;61036;53.224;6.554;2023-04-02T13:06:53;102677.19;;;10.52;100.00
72896;BME280;61036;53.224;6.554;2023-04-02T13:09:42;102673.97;;;11.02;100.00
72896;BME280;61036;53.224;6.554;2023-04-02T13:12:24;102680.75;;;11.11;100.00
72896;BME280;61036;53.224;6.554;2023-04-02T13:14:54;102689.81;;;10.31;100.00
72896;BME280;61036;53.224;6.554;2023-04-02T13:20:53;102688.13;;;9.86;100.00
72896;BME280;61036;53.224;6.554;2023-04-02T13:23:28;102689.13;;;9.83;100.00
72896;BME280;61036;53.224;6.554;2023-04-02T13:26:08;102685.44;;;10.68;100.00
72896;BME280;61036;53.224;6.554;2023-04-02T13:28:35;102694.91;;;9.74;100.00
72896;BME280;61036;53.224;6.554;2023-04-02T13:31:01;102682.69;;;9.66;100.00
72896;BME280;61036;53.224;6.554;2023-04-02T13:33:26;102689.50;;;10.17;100.00
72896;BME280;61036;53.224;6.554;2023-04-02T13:35:52;102689.19;;;10.24;100.00
72896;BME280;61036;53.224;6.554;2023-04-02T13:38:17;102693.31;;;9.70;100.00
72896;BME280;61036;53.224;6.554;2023-04-02T13:40:43;102697.91;;;9.23;100.00
72896;BME280;61036;53.224;6.554;2023-04-02T13:43:16;102705.22;;;9.65;100.00
72896;BME280;61036;53.224;6.554;2023-04-02T13:45:44;102709.59;;;10.10;100.00
72896;BME280;61036;53.224;6.554;2023-04-02T13:48:13;102701.41;;;9.48;100.00
72896;BME280;61036;53.224;6.554;2023-04-02T13:50:39;102708.34;;;9.76;100.00
72896;BME280;61036;53.224;6.554;2023-04-02T13:53:06;102709.50;;;9.91;100.00
72896;BME280;61036;53.224;6.554;2023-04-02T13:55:38;102689.63;;;10.36;100.00
72896;BME280;61036;53.224;6.554;2023-04-02T13:58:05;102701.72;;;10.25;100.00
72896;BME280;61036;53.224;6.554;2023-04-02T14:00:31;102714.13;;;10.09;100.00
72896;BME280;61036;53.224;6.554;2023-04-02T14:03:03;102720.84;;;9.99;100.00
72896;BME280;61036;53.224;6.554;2023-04-02T14:10:47;102713.25;;;9.66;100.00
72896;BME280;61036;53.224;6.554;2023-04-02T14:21:32;102722.13;;;10.33;100.00
72896;BME280;61036;53.224;6.554;2023-04-02T14:35:24;102729.44;;;9.21;100.00
72896;BME280;61036;53.224;6.554;2023-04-02T14:38:08;102725.13;;;9.82;100.00
72896;BME280;61036;53.224;6.554;2023-04-02T14:43:21;102735.47;;;9.71;100.00
72896;BME280;61036;53.224;6.554;2023-04-02T14:48:31;102736.41;;;9.70;100.00
72896;BME280;61036;53.224;6.554;2023-04-02T14:51:03;102742.84;;;9.44;100.00
72896;BME280;61036;53.224;6.554;2023-04-02T14:56:06;102747.03;;;9.95;100.00
72896;BME280;61036;53.224;6.554;2023-04-02T14:58:37;102759.94;;;9.43;100.00
72896;BME280;61036;53.224;6.554;2023-04-02T15:01:33;102746.44;;;9.21;100.00
72896;BME280;61036;53.224;6.554;2023-04-02T15:04:12;102740.47;;;9.80;100.00
72896;BME280;61036;53.224;6.554;2023-04-02T15:06:46;102743.16;;;9.80;100.00
72896;BME280;61036;53.224;6.554;2023-04-02T15:09:23;102770.00;;;9.14;100.00
72896;BME280;61036;53.224;6.554;2023-04-02T15:11:54;102746.63;;;9.84;100.00
72896;BME280;61036;53.224;6.554;2023-04-02T15:14:26;102751.38;;;9.77;100.00
72896;BME280;61036;53.224;6.554;2023-04-02T15:16:52;102749.03;;;10.12;100.00
72896;BME280;61036;53.224;6.554;2023-04-02T15:19:18;102751.06;;;10.29;100.00
72896;BME280;61036;53.224;6.554;2023-04-02T15:24:43;102758.31;;;9.39;99.06
72896;BME280;61036;53.224;6.554;2023-04-02T15:27:41;102753.34;;;9.96;99.08
72896;BME280;61036;53.224;6.554;2023-04-02T15:30:13;102764.03;;;9.97;97.68
72896;BME280;61036;53.224;6.554;2023-04-02T15:32:43;102773.16;;;9.49;98.08
72896;BME280;61036;53.224;6.554;2023-04-02T15:35:45;102770.16;;;10.01;95.50
72896;BME280;61036;53.224;6.554;2023-04-02T15:41:00;102778.19;;;10.02;96.33
72896;BME280;61036;53.224;6.554;2023-04-02T15:59:58;102786.41;;;9.77;97.67
72896;BME280;61036;53.224;6.554;2023-04-02T16:10:52;102801.13;;;8.98;95.84
72896;BME280;61036;53.224;6.554;2023-04-02T16:13:28;102785.47;;;9.33;93.95
72896;BME280;61036;53.224;6.554;2023-04-02T16:16:14;102794.94;;;9.67;92.38
72896;BME280;61036;53.224;6.554;2023-04-02T16:21:36;102797.00;;;9.82;92.07